createdAt,value
2023-01-04T00:10:16.576Z,85.12
2023-01-04T00:25:20.049Z,86.13
2023-01-04T00:40:23.537Z,86.32
2023-01-04T00:55:27.084Z,85.55
2023-01-04T01:10:30.631Z,87.99
2023-01-04T01:25:34.917Z,91.41
2023-01-04T01:40:42.857Z,91.13
2023-01-04T01:55:49.734Z,91.44
2023-01-04T02:10:53.115Z,92.24
2023-01-04T02:26:38.648Z,93.18
2023-01-04T02:41:50.677Z,94.12
2023-01-04T02:57:20.023Z,90.45
2023-01-04T03:12:33.213Z,91.49
2023-01-04T03:27:55.187Z,91.50
2023-01-04T03:43:29.101Z,91.54
2023-01-04T03:58:32.394Z,92.15
2023-01-04T04:13:35.649Z,94.28
2023-01-04T04:28:39.611Z,95.90
2023-01-04T04:43:42.778Z,95.30
2023-01-04T04:58:45.987Z,95.33
2023-01-04T05:13:49.153Z,95.86
2023-01-04T05:28:54.227Z,94.22
2023-01-04T05:43:57.611Z,93.22
2023-01-04T05:59:00.800Z,92.58
2023-01-04T06:14:04.346Z,92.12
2023-01-04T06:29:07.972Z,92.17
2023-01-04T06:44:11.220Z,93.02
2023-01-04T06:59:14.683Z,95.49
2023-01-04T07:14:17.854Z,95.81
2023-01-04T07:29:22.645Z,96.46
2023-01-04T07:44:27.963Z,97.29
2023-01-04T07:59:31.648Z,98.07
2023-01-04T08:14:34.885Z,97.50
2023-01-04T08:29:38.864Z,96.55
2023-01-04T08:44:42.194Z,95.26
2023-01-04T08:59:45.560Z,94.37
2023-01-04T09:14:49.531Z,95.18
2023-01-04T09:29:52.779Z,96.56
2023-01-04T10:00:29.904Z,97.96
2023-01-04T10:15:45.287Z,98.72
2023-01-04T10:30:51.293Z,97.78
2023-01-04T10:46:06.995Z,97.76
2023-01-04T11:01:17.901Z,97.35
2023-01-04T11:16:21.676Z,96.31
2023-01-04T11:31:33.084Z,95.60
2023-01-04T11:46:36.257Z,94.84
2023-01-04T12:01:49.819Z,93.74
2023-01-04T12:17:05.151Z,92.69
2023-01-04T12:32:08.339Z,90.99
2023-01-04T12:47:39.469Z,89.58
2023-01-04T13:02:48.531Z,89.70
2023-01-04T13:17:53.508Z,91.98
2023-01-04T13:33:25.029Z,95.20
2023-01-04T13:48:23.063Z,97.70
2023-01-04T14:03:31.492Z,99.84
2023-01-04T14:18:34.763Z,100.00
2023-01-04T14:33:41.406Z,99.97
2023-01-04T14:48:44.745Z,100.00
2023-01-04T15:03:47.966Z,100.00
2023-01-04T15:18:51.305Z,100.00
2023-01-04T15:33:54.565Z,100.00
2023-01-04T15:48:58.382Z,100.00
2023-01-04T16:04:02.879Z,100.00
2023-01-04T16:19:06.186Z,100.00
2023-01-04T16:34:13.055Z,100.00
2023-01-04T16:49:17.655Z,100.00
2023-01-04T17:04:21.164Z,100.00
2023-01-04T17:19:46.752Z,100.00
2023-01-04T17:34:51.547Z,100.00
2023-01-04T17:49:55.252Z,100.00
2023-01-04T18:04:59.661Z,100.00
2023-01-04T18:20:03.721Z,100.00
2023-01-04T18:35:07.900Z,100.00
2023-01-04T18:50:11.145Z,100.00
2023-01-04T19:05:19.108Z,100.00
2023-01-04T19:20:22.661Z,100.00
2023-01-04T19:35:26.166Z,100.00
2023-01-04T19:50:29.909Z,100.00
2023-01-04T20:05:34.457Z,100.00
2023-01-04T20:20:41.617Z,100.00
2023-01-04T20:35:46.200Z,100.00
2023-01-04T20:50:50.060Z,100.00
2023-01-04T21:05:54.283Z,100.00
2023-01-04T21:20:58.194Z,100.00
2023-01-04T21:36:10.520Z,100.00
2023-01-04T21:51:15.163Z,100.00
2023-01-04T22:06:20.792Z,100.00
2023-01-04T22:21:24.308Z,100.00
2023-01-04T22:36:27.796Z,100.00
2023-01-04T22:51:31.394Z,100.00
2023-01-04T23:06:34.670Z,100.00
2023-01-04T23:21:38.333Z,100.00
2023-01-04T23:36:42.629Z,100.00
2023-01-04T23:51:45.846Z,100.00
